createdAt,value
2023-01-30T00:01:19.707Z,0.55
2023-01-30T00:03:47.178Z,0.62
2023-01-30T00:06:14.793Z,0.66
2023-01-30T00:08:41.304Z,0.66
2023-01-30T00:11:11.484Z,0.71
2023-01-30T00:13:38.982Z,0.78
2023-01-30T00:16:06.269Z,0.76
2023-01-30T00:18:32.858Z,0.73
2023-01-30T00:21:03.368Z,0.81
2023-01-30T00:23:32.184Z,0.82
2023-01-30T00:25:59.655Z,0.82
2023-01-30T00:28:26.411Z,0.75
2023-01-30T00:30:55.115Z,0.79
2023-01-30T00:33:24.740Z,0.79
2023-01-30T00:35:53.475Z,0.80
2023-01-30T00:38:21.241Z,0.81
2023-01-30T00:40:48.709Z,0.83
2023-01-30T00:43:39.356Z,0.86
2023-01-30T00:46:45.004Z,0.88
2023-01-30T00:49:11.598Z,0.86
2023-01-30T00:51:38.103Z,0.85
2023-01-30T00:54:04.595Z,0.89
2023-01-30T00:56:31.131Z,0.89
2023-01-30T00:58:57.605Z,0.98
2023-01-30T01:01:24.317Z,1.09
2023-01-30T01:03:50.906Z,1.16
2023-01-30T01:06:17.474Z,1.12
2023-01-30T01:08:43.948Z,1.14
2023-01-30T01:11:10.520Z,1.16
2023-01-30T01:13:37.002Z,1.14
2023-01-30T01:16:03.664Z,1.17
2023-01-30T01:18:30.130Z,1.21
2023-01-30T01:20:56.604Z,1.21
2023-01-30T01:23:23.128Z,1.21
2023-01-30T01:25:49.661Z,1.17
2023-01-30T01:28:18.360Z,1.10
2023-01-30T01:30:44.832Z,1.07
2023-01-30T01:33:11.263Z,1.20
2023-01-30T01:35:41.328Z,1.27
2023-01-30T01:38:07.831Z,1.26
2023-01-30T01:40:52.850Z,1.25
2023-01-30T01:43:23.432Z,1.21
2023-01-30T01:45:57.436Z,1.28
2023-01-30T01:48:33.444Z,1.37
2023-01-30T01:51:12.964Z,1.35
2023-01-30T01:53:50.212Z,1.42
2023-01-30T01:56:19.372Z,1.54
2023-01-30T01:58:53.490Z,1.51
2023-01-30T02:01:20.140Z,1.49
2023-01-30T02:03:54.353Z,1.39
2023-01-30T02:06:22.782Z,1.43
2023-01-30T02:09:00.324Z,1.49
2023-01-30T02:11:35.885Z,1.59
2023-01-30T02:14:03.059Z,1.61
2023-01-30T02:16:29.671Z,1.47
2023-01-30T02:18:56.370Z,1.43
2023-01-30T02:22:19.900Z,1.42
2023-01-30T02:25:19.358Z,1.41
2023-01-30T02:28:10.679Z,1.34
2023-01-30T02:30:55.672Z,1.45
2023-01-30T02:33:53.139Z,1.29
2023-01-30T02:36:33.793Z,1.33
2023-01-30T02:40:05.689Z,1.26
2023-01-30T02:42:59.323Z,1.06
2023-01-30T02:45:41.145Z,1.14
2023-01-30T02:48:17.059Z,1.31
2023-01-30T02:50:54.940Z,1.28
2023-01-30T02:53:21.810Z,1.28
2023-01-30T02:55:48.284Z,1.33
2023-01-30T02:58:21.544Z,1.38
2023-01-30T03:01:36.043Z,1.39
2023-01-30T03:04:44.127Z,1.32
2023-01-30T03:07:40.451Z,1.40
2023-01-30T03:10:34.238Z,1.41
2023-01-30T03:13:16.255Z,1.54
2023-01-30T03:15:53.905Z,1.43
2023-01-30T03:18:21.531Z,1.37
2023-01-30T03:20:48.155Z,1.45
2023-01-30T03:23:14.732Z,1.58
2023-01-30T03:25:44.213Z,1.63
2023-01-30T03:28:14.101Z,1.70
2023-01-30T03:30:40.824Z,1.75
2023-01-30T03:33:07.405Z,1.71
2023-01-30T03:35:34.255Z,1.68
2023-01-30T03:38:00.749Z,1.77
2023-01-30T03:40:27.380Z,1.83
2023-01-30T03:42:53.865Z,1.79
2023-01-30T03:45:20.575Z,1.78
2023-01-30T03:47:47.163Z,1.73
2023-01-30T03:50:14.011Z,1.65
2023-01-30T03:52:40.517Z,1.72
2023-01-30T03:55:07.701Z,1.72
2023-01-30T03:57:34.131Z,1.76
2023-01-30T04:00:00.678Z,1.74
2023-01-30T04:02:27.213Z,1.62
2023-01-30T04:04:53.703Z,1.65
2023-01-30T04:07:20.146Z,1.72
2023-01-30T04:09:46.698Z,1.73
2023-01-30T04:12:13.799Z,1.81
2023-01-30T04:14:40.513Z,1.73
2023-01-30T04:17:07.007Z,1.81
2023-01-30T04:19:33.590Z,1.85
2023-01-30T04:22:00.137Z,1.88
2023-01-30T04:24:26.612Z,1.96
2023-01-30T04:26:53.096Z,1.92
2023-01-30T04:29:19.648Z,1.80
2023-01-30T04:31:46.086Z,1.80
2023-01-30T04:34:12.687Z,1.80
2023-01-30T04:36:39.170Z,1.77
2023-01-30T04:39:05.722Z,1.89
2023-01-30T04:41:32.220Z,1.89
2023-01-30T04:43:58.652Z,1.88
2023-01-30T04:46:25.210Z,1.97
2023-01-30T04:48:51.629Z,1.97
2023-01-30T04:51:18.116Z,1.93
2023-01-30T04:53:44.657Z,1.97
2023-01-30T04:56:11.138Z,1.87
2023-01-30T04:58:37.601Z,1.85
2023-01-30T05:01:25.311Z,1.83
2023-01-30T05:03:55.643Z,1.80
2023-01-30T05:06:23.567Z,1.77
2023-01-30T05:08:52.211Z,1.82
2023-01-30T05:11:19.982Z,1.80
2023-01-30T05:13:46.741Z,1.80
2023-01-30T05:16:15.729Z,1.78
2023-01-30T05:18:43.002Z,1.84
2023-01-30T05:21:19.749Z,1.77
2023-01-30T05:23:46.910Z,1.80
2023-01-30T05:26:15.094Z,1.83
2023-01-30T05:28:42.593Z,1.75
2023-01-30T05:31:13.961Z,1.81
2023-01-30T05:33:41.616Z,1.82
2023-01-30T05:36:15.133Z,1.89
2023-01-30T05:38:44.552Z,1.90
2023-01-30T05:41:13.803Z,1.88
2023-01-30T05:43:40.493Z,1.91
2023-01-30T05:46:09.718Z,1.86
2023-01-30T05:48:36.239Z,1.83
2023-01-30T05:51:03.590Z,1.94
2023-01-30T05:53:35.987Z,1.93
2023-01-30T05:56:05.658Z,1.94
2023-01-30T05:58:33.450Z,2.00
2023-01-30T06:01:02.623Z,2.08
2023-01-30T06:03:29.760Z,2.12
2023-01-30T06:05:56.344Z,2.14
2023-01-30T06:08:23.423Z,2.22
2023-01-30T06:10:50.259Z,2.22
2023-01-30T06:13:16.719Z,2.22
2023-01-30T06:15:43.295Z,2.22
2023-01-30T06:18:09.838Z,2.16
2023-01-30T06:20:37.044Z,2.15
2023-01-30T06:23:03.544Z,2.21
2023-01-30T06:25:30.002Z,2.20
2023-01-30T06:27:56.502Z,2.30
2023-01-30T06:30:23.104Z,2.31
2023-01-30T06:32:52.459Z,2.31
2023-01-30T06:35:19.620Z,2.33
2023-01-30T06:37:46.507Z,2.40
2023-01-30T06:40:13.431Z,2.40
2023-01-30T06:42:45.854Z,2.30
2023-01-30T06:45:14.502Z,2.27
2023-01-30T06:47:54.345Z,2.12
2023-01-30T06:50:25.294Z,2.29
2023-01-30T06:52:53.877Z,2.30
2023-01-30T06:55:26.613Z,2.41
2023-01-30T06:58:11.979Z,2.41
2023-01-30T07:00:40.725Z,2.49
2023-01-30T07:03:12.768Z,2.51
2023-01-30T07:05:40.727Z,2.59
2023-01-30T07:08:07.401Z,2.77
2023-01-30T07:10:35.785Z,2.86
2023-01-30T07:13:03.760Z,2.92
2023-01-30T07:15:31.343Z,2.89
2023-01-30T07:17:58.140Z,2.87
2023-01-30T07:20:24.889Z,2.82
2023-01-30T07:22:56.619Z,2.85
2023-01-30T07:25:26.353Z,2.92
2023-01-30T07:27:58.832Z,2.97
2023-01-30T07:30:27.913Z,3.03
2023-01-30T07:33:00.427Z,3.07
2023-01-30T07:35:31.170Z,3.21
2023-01-30T07:37:58.302Z,3.26
2023-01-30T07:40:25.909Z,3.20
2023-01-30T07:43:04.864Z,3.44
2023-01-30T07:45:42.247Z,3.39
2023-01-30T07:48:11.376Z,3.43
2023-01-30T07:50:38.494Z,3.36
2023-01-30T07:53:07.906Z,3.43
2023-01-30T07:55:35.250Z,3.44
2023-01-30T07:58:02.403Z,3.45
2023-01-30T08:00:29.203Z,3.47
2023-01-30T08:02:55.793Z,3.44
2023-01-30T08:05:22.469Z,3.58
2023-01-30T08:07:48.965Z,3.60
2023-01-30T08:10:16.817Z,3.72
2023-01-30T08:12:43.603Z,3.54
2023-01-30T08:15:11.104Z,3.59
2023-01-30T08:17:38.073Z,3.51
2023-01-30T08:20:05.162Z,3.50
2023-01-30T08:22:31.679Z,3.45
2023-01-30T08:24:58.209Z,3.50
2023-01-30T08:27:24.732Z,3.69
2023-01-30T08:29:51.376Z,3.81
2023-01-30T08:32:17.871Z,3.73
2023-01-30T08:34:44.363Z,3.75
2023-01-30T08:37:10.805Z,3.65
2023-01-30T08:39:37.426Z,3.43
2023-01-30T08:42:04.135Z,3.51
2023-01-30T08:44:30.589Z,3.50
2023-01-30T08:46:57.046Z,3.65
2023-01-30T08:49:23.525Z,3.85
2023-01-30T08:51:50.074Z,3.81
2023-01-30T08:54:16.562Z,3.99
2023-01-30T08:56:43.131Z,3.89
2023-01-30T08:59:09.626Z,3.91
2023-01-30T09:01:38.046Z,4.03
2023-01-30T09:04:04.752Z,4.00
2023-01-30T09:06:32.047Z,4.23
2023-01-30T09:09:00.151Z,4.08
2023-01-30T09:11:27.050Z,4.09
2023-01-30T09:13:53.758Z,4.10
2023-01-30T09:16:20.324Z,4.19
2023-01-30T09:18:46.864Z,4.31
2023-01-30T09:21:14.084Z,4.40
2023-01-30T09:23:41.291Z,4.44
2023-01-30T09:26:08.461Z,4.50
2023-01-30T09:28:35.519Z,4.52
2023-01-30T09:31:02.614Z,4.47
2023-01-30T09:33:29.450Z,4.60
2023-01-30T09:35:56.369Z,4.56
2023-01-30T09:38:22.904Z,4.70
2023-01-30T09:41:13.641Z,4.86
2023-01-30T09:44:01.395Z,4.94
2023-01-30T09:47:09.706Z,4.96
2023-01-30T09:50:02.858Z,4.96
2023-01-30T09:53:00.108Z,4.80
2023-01-30T09:55:37.010Z,5.01
2023-01-30T09:58:03.542Z,5.02
2023-01-30T10:00:42.206Z,4.85
2023-01-30T10:03:08.699Z,4.82
2023-01-30T10:05:54.294Z,4.68
2023-01-30T10:08:32.723Z,4.70
2023-01-30T10:11:30.310Z,4.56
2023-01-30T10:14:13.123Z,4.40
2023-01-30T10:17:02.445Z,4.58
2023-01-30T10:20:03.372Z,4.63
2023-01-30T10:22:45.847Z,4.69
2023-01-30T10:25:37.549Z,4.44
2023-01-30T10:28:16.245Z,4.50
2023-01-30T10:30:47.833Z,4.86
2023-01-30T10:33:28.811Z,4.96
2023-01-30T10:36:25.035Z,4.74
2023-01-30T10:38:55.166Z,4.95
2023-01-30T10:42:19.589Z,4.70
2023-01-30T10:44:47.762Z,4.62
2023-01-30T10:47:47.441Z,4.55
2023-01-30T10:50:45.215Z,4.44
2023-01-30T10:53:21.304Z,4.55
2023-01-30T10:55:52.885Z,4.58
2023-01-30T10:58:36.448Z,4.66
2023-01-30T11:01:24.223Z,4.71
2023-01-30T11:03:59.725Z,4.79
2023-01-30T11:06:26.614Z,4.91
2023-01-30T11:08:56.037Z,5.02
2023-01-30T11:11:47.368Z,4.77
2023-01-30T11:14:13.910Z,4.80
2023-01-30T11:16:47.478Z,4.96
2023-01-30T11:19:20.824Z,4.96
2023-01-30T11:21:56.312Z,4.92
2023-01-30T11:24:31.456Z,4.99
2023-01-30T11:27:35.051Z,5.08
2023-01-30T11:30:14.473Z,4.74
2023-01-30T11:32:44.467Z,5.03
2023-01-30T11:35:13.884Z,4.66
2023-01-30T11:37:43.889Z,4.65
2023-01-30T11:40:28.366Z,4.39
2023-01-30T11:43:10.649Z,4.32
2023-01-30T11:45:41.896Z,4.47
2023-01-30T11:48:33.015Z,4.54
2023-01-30T11:51:05.949Z,4.43
2023-01-30T11:53:46.368Z,4.53
2023-01-30T11:56:40.473Z,4.56
2023-01-30T11:59:47.507Z,4.36
2023-01-30T12:02:24.279Z,4.50
2023-01-30T12:04:59.399Z,4.76
2023-01-30T12:07:29.653Z,4.69
2023-01-30T12:09:58.450Z,4.59
2023-01-30T12:12:49.077Z,4.56
2023-01-30T12:15:31.829Z,4.58
2023-01-30T12:18:36.296Z,4.47
2023-01-30T12:21:21.568Z,4.62
2023-01-30T12:24:09.875Z,4.58
2023-01-30T12:26:47.091Z,4.64
2023-01-30T12:29:29.769Z,4.67
2023-01-30T12:32:12.259Z,4.57
2023-01-30T12:34:38.955Z,4.80
2023-01-30T12:37:40.250Z,4.90
2023-01-30T12:40:40.559Z,4.93
2023-01-30T12:43:25.679Z,5.00
2023-01-30T12:46:08.359Z,4.80
2023-01-30T12:49:25.835Z,4.44
2023-01-30T12:52:41.013Z,4.65
2023-01-30T12:55:34.673Z,4.52
2023-01-30T12:58:24.192Z,4.73
2023-01-30T13:01:29.540Z,4.36
2023-01-30T13:04:34.367Z,4.49
2023-01-30T13:07:28.496Z,4.45
2023-01-30T13:10:23.268Z,4.71
2023-01-30T13:13:45.987Z,4.72
2023-01-30T13:16:32.647Z,4.79
2023-01-30T13:19:40.968Z,4.74
2023-01-30T13:22:35.219Z,4.63
2023-01-30T13:25:53.696Z,4.60
2023-01-30T13:28:27.508Z,4.80
2023-01-30T13:30:56.540Z,4.88
2023-01-30T13:33:35.350Z,4.66
2023-01-30T13:36:26.006Z,4.65
2023-01-30T13:39:04.838Z,4.81
2023-01-30T13:41:44.209Z,4.91
2023-01-30T13:44:23.118Z,4.90
2023-01-30T13:46:54.347Z,4.85
2023-01-30T13:49:37.908Z,4.74
2023-01-30T13:52:46.612Z,4.63
2023-01-30T13:55:54.053Z,4.61
2023-01-30T13:58:53.344Z,4.82
2023-01-30T14:01:21.013Z,4.89
2023-01-30T14:03:47.479Z,4.68
2023-01-30T14:06:37.258Z,4.65
2023-01-30T14:09:20.158Z,4.64
2023-01-30T14:11:59.678Z,4.75
2023-01-30T14:14:34.097Z,4.85
2023-01-30T14:17:27.305Z,4.94
2023-01-30T14:20:01.613Z,5.15
2023-01-30T14:22:42.275Z,5.18
2023-01-30T14:25:30.285Z,5.30
2023-01-30T14:27:59.739Z,5.38
2023-01-30T14:30:55.246Z,5.46
2023-01-30T14:33:21.743Z,5.66
2023-01-30T14:35:58.144Z,5.44
2023-01-30T14:38:39.179Z,5.30
2023-01-30T14:41:05.741Z,5.39
2023-01-30T14:43:41.534Z,5.26
2023-01-30T14:46:18.894Z,5.27
2023-01-30T14:48:54.119Z,5.18
2023-01-30T14:51:40.251Z,5.23
2023-01-30T14:54:12.924Z,5.16
2023-01-30T14:56:58.662Z,5.21
2023-01-30T14:59:52.032Z,5.06
2023-01-30T15:02:30.369Z,5.17
2023-01-30T15:05:13.868Z,5.03
2023-01-30T15:07:53.569Z,5.23
2023-01-30T15:11:19.089Z,5.21
2023-01-30T15:14:17.746Z,5.08
2023-01-30T15:17:21.725Z,4.93
2023-01-30T15:20:48.061Z,4.90
2023-01-30T15:23:29.461Z,4.79
2023-01-30T15:26:18.552Z,4.83
2023-01-30T15:29:02.512Z,4.83
2023-01-30T15:31:29.117Z,4.86
2023-01-30T15:33:58.882Z,4.97
2023-01-30T15:36:34.006Z,5.10
2023-01-30T15:39:06.341Z,5.07
2023-01-30T15:41:41.259Z,5.06
2023-01-30T15:44:50.912Z,4.74
2023-01-30T15:47:39.937Z,4.67
2023-01-30T15:50:10.207Z,4.76
2023-01-30T15:52:50.214Z,4.79
2023-01-30T15:55:32.100Z,4.71
2023-01-30T15:58:06.217Z,4.91
2023-01-30T16:00:44.091Z,4.61
2023-01-30T16:03:17.098Z,4.67
2023-01-30T16:05:49.729Z,4.76
2023-01-30T16:08:23.638Z,4.92
2023-01-30T16:10:51.694Z,4.86
2023-01-30T16:13:21.149Z,4.69
2023-01-30T16:16:13.694Z,4.57
2023-01-30T16:18:56.484Z,4.47
2023-01-30T16:21:37.369Z,4.58
2023-01-30T16:24:18.001Z,4.50
2023-01-30T16:26:52.790Z,4.23
2023-01-30T16:29:26.626Z,4.26
2023-01-30T16:31:55.350Z,4.54
2023-01-30T16:34:38.179Z,4.19
2023-01-30T16:37:27.613Z,4.04
2023-01-30T16:40:23.130Z,4.09
2023-01-30T16:43:01.939Z,4.03
2023-01-30T16:45:34.392Z,4.16
2023-01-30T16:48:32.980Z,4.18
2023-01-30T16:50:59.591Z,4.36
2023-01-30T16:53:30.748Z,4.51
2023-01-30T16:56:02.290Z,4.52
2023-01-30T16:58:34.079Z,4.48
2023-01-30T17:01:08.206Z,4.49
2023-01-30T17:03:40.315Z,4.50
2023-01-30T17:06:19.651Z,4.47
2023-01-30T17:08:52.031Z,4.68
2023-01-30T17:11:41.448Z,4.53
2023-01-30T17:14:25.687Z,4.67
2023-01-30T17:17:08.616Z,4.53
2023-01-30T17:19:36.331Z,4.57
2023-01-30T17:22:07.909Z,4.55
2023-01-30T17:24:35.962Z,4.60
2023-01-30T17:27:04.412Z,4.67
2023-01-30T17:29:48.892Z,4.64
2023-01-30T17:32:16.035Z,4.84
2023-01-30T17:34:42.704Z,4.65
2023-01-30T17:37:23.041Z,4.54
2023-01-30T17:39:49.669Z,4.63
2023-01-30T17:42:21.928Z,4.61
2023-01-30T17:44:48.869Z,4.61
2023-01-30T17:47:16.812Z,4.76
2023-01-30T17:49:43.640Z,4.67
2023-01-30T17:52:14.040Z,4.72
2023-01-30T17:54:40.783Z,4.66
2023-01-30T17:57:11.643Z,4.77
2023-01-30T17:59:38.099Z,4.53
2023-01-30T18:02:05.032Z,4.52
2023-01-30T18:04:31.515Z,4.37
2023-01-30T18:07:06.257Z,4.42
2023-01-30T18:09:32.789Z,4.43
2023-01-30T18:11:59.533Z,4.30
2023-01-30T18:14:26.005Z,4.35
2023-01-30T18:16:52.970Z,4.29
2023-01-30T18:19:23.784Z,4.49
2023-01-30T18:21:50.383Z,4.51
2023-01-30T18:24:16.904Z,4.52
2023-01-30T18:26:43.526Z,4.53
2023-01-30T18:29:10.852Z,4.44
2023-01-30T18:31:40.150Z,4.32
2023-01-30T18:34:07.554Z,4.35
2023-01-30T18:36:35.857Z,4.29
2023-01-30T18:39:03.751Z,4.25
2023-01-30T18:41:30.816Z,4.04
2023-01-30T18:44:01.135Z,4.22
2023-01-30T18:46:29.404Z,4.10
2023-01-30T18:48:57.414Z,4.08
2023-01-30T18:51:32.914Z,4.13
2023-01-30T18:54:01.070Z,4.16
2023-01-30T18:56:31.614Z,4.14
2023-01-30T18:59:02.355Z,4.30
2023-01-30T19:01:34.549Z,4.21
2023-01-30T19:04:03.935Z,4.32
2023-01-30T19:06:30.567Z,4.37
2023-01-30T19:08:57.706Z,4.24
2023-01-30T19:11:43.381Z,4.03
2023-01-30T19:14:10.806Z,4.13
2023-01-30T19:16:39.195Z,4.27
2023-01-30T19:19:07.471Z,4.31
2023-01-30T19:21:35.390Z,4.40
2023-01-30T19:24:07.321Z,4.30
2023-01-30T19:26:35.009Z,4.31
2023-01-30T19:29:01.808Z,4.28
2023-01-30T19:31:28.513Z,4.32
2023-01-30T19:34:00.612Z,4.46
2023-01-30T19:36:30.216Z,4.47
2023-01-30T19:38:59.437Z,4.35
2023-01-30T19:41:30.353Z,4.35
2023-01-30T19:43:59.613Z,4.37
2023-01-30T19:46:28.718Z,4.37
2023-01-30T19:48:55.610Z,4.43
2023-01-30T19:51:29.055Z,4.59
2023-01-30T19:54:02.667Z,4.64
2023-01-30T19:56:30.191Z,4.57
2023-01-30T19:58:59.358Z,4.53
2023-01-30T20:01:30.496Z,4.66
2023-01-30T20:03:59.026Z,4.43
2023-01-30T20:06:32.686Z,4.43
2023-01-30T20:09:09.571Z,4.39
2023-01-30T20:11:38.724Z,4.39
2023-01-30T20:14:07.106Z,4.44
2023-01-30T20:16:35.648Z,4.57
2023-01-30T20:19:06.783Z,4.47
2023-01-30T20:21:34.390Z,4.43
2023-01-30T20:24:01.933Z,4.58
2023-01-30T20:26:35.828Z,4.50
2023-01-30T20:29:04.760Z,4.58
2023-01-30T20:31:31.988Z,4.56
2023-01-30T20:34:04.371Z,4.54
2023-01-30T20:36:31.328Z,4.52
2023-01-30T20:39:03.887Z,4.63
2023-01-30T20:41:32.403Z,4.48
2023-01-30T20:43:59.333Z,4.41
2023-01-30T20:46:34.479Z,4.42
2023-01-30T20:49:01.453Z,4.53
2023-01-30T20:51:31.393Z,4.54
2023-01-30T20:54:02.901Z,4.67
2023-01-30T20:56:42.987Z,4.47
2023-01-30T20:59:12.015Z,4.35
2023-01-30T21:01:40.645Z,4.32
2023-01-30T21:04:14.027Z,4.26
2023-01-30T21:06:45.439Z,4.28
2023-01-30T21:09:20.144Z,4.39
2023-01-30T21:11:48.610Z,4.34
2023-01-30T21:14:16.502Z,4.36
2023-01-30T21:16:43.800Z,4.46
2023-01-30T21:19:15.771Z,4.46
2023-01-30T21:21:53.344Z,4.33
2023-01-30T21:24:29.263Z,4.01
2023-01-30T21:26:56.763Z,4.08
2023-01-30T21:29:26.672Z,4.25
2023-01-30T21:31:54.555Z,4.25
2023-01-30T21:34:21.643Z,4.39
2023-01-30T21:37:08.105Z,4.33
2023-01-30T21:39:53.244Z,4.20
2023-01-30T21:42:39.099Z,4.29
2023-01-30T21:45:06.705Z,4.29
2023-01-30T21:47:33.232Z,4.43
2023-01-30T21:49:59.726Z,4.20
2023-01-30T21:52:26.234Z,4.26
2023-01-30T21:54:52.699Z,4.36
2023-01-30T21:57:19.182Z,4.36
2023-01-30T21:59:46.063Z,4.35
2023-01-30T22:02:12.569Z,4.42
2023-01-30T22:04:39.083Z,4.36
2023-01-30T22:07:06.938Z,4.32
2023-01-30T22:09:33.801Z,4.27
2023-01-30T22:12:00.314Z,4.26
2023-01-30T22:14:26.923Z,4.24
2023-01-30T22:16:53.535Z,4.14
2023-01-30T22:19:20.025Z,4.10
2023-01-30T22:21:46.519Z,4.17
2023-01-30T22:24:13.036Z,4.22
2023-01-30T22:26:39.702Z,4.06
2023-01-30T22:29:06.453Z,4.11
2023-01-30T22:31:37.443Z,4.20
2023-01-30T22:34:05.096Z,4.24
2023-01-30T22:36:33.966Z,4.11
2023-01-30T22:39:01.747Z,4.33
2023-01-30T22:41:34.558Z,4.31
2023-01-30T22:44:04.374Z,4.29
2023-01-30T22:46:36.190Z,4.32
2023-01-30T22:49:05.779Z,4.29
2023-01-30T22:51:39.657Z,4.32
2023-01-30T22:54:11.492Z,4.27
2023-01-30T22:56:43.782Z,4.00
2023-01-30T22:59:11.857Z,4.09
2023-01-30T23:01:42.344Z,4.07
2023-01-30T23:04:17.491Z,4.08
2023-01-30T23:06:45.696Z,4.14
2023-01-30T23:09:19.468Z,4.13
2023-01-30T23:12:14.823Z,4.05
2023-01-30T23:14:42.708Z,4.08
2023-01-30T23:17:27.885Z,4.18
2023-01-30T23:19:55.022Z,4.21
2023-01-30T23:22:22.395Z,4.30
2023-01-30T23:24:50.931Z,4.31
2023-01-30T23:27:20.801Z,4.20
2023-01-30T23:29:47.332Z,4.22
2023-01-30T23:32:14.857Z,4.20
2023-01-30T23:34:41.295Z,4.20
2023-01-30T23:37:07.835Z,4.24
2023-01-30T23:39:34.285Z,4.13
2023-01-30T23:42:00.731Z,4.12
2023-01-30T23:44:27.227Z,4.11
2023-01-30T23:46:53.716Z,4.20
2023-01-30T23:49:20.298Z,4.14
2023-01-30T23:51:46.766Z,4.17
2023-01-30T23:54:14.352Z,4.24
2023-01-30T23:56:44.600Z,4.23
2023-01-30T23:59:12.275Z,4.26
